sensor_id;sensor_type;location;lat;lon;timestamp;P1;durP1;ratioP1;P2;durP2;ratioP2
58306;SDS011;44116;50.884;4.768;2023-12-20T00:00:24;14.7;;;2.7;;
58306;SDS011;44116;50.884;4.768;2023-12-20T00:02:24;11.8;;;2.8;;
58306;SDS011;44116;50.884;4.768;2023-12-20T00:04:24;13.2;;;2.6;;
58306;SDS011;44116;50.884;4.768;2023-12-20T00:06:23;12.2;;;3.4;;
58306;SDS011;44116;50.884;4.768;2023-12-20T00:08:23;13.2;;;3.1;;
58306;SDS011;44116;50.884;4.768;2023-12-20T00:10:23;11.9;;;2.9;;
58306;SDS011;44116;50.884;4.768;2023-12-20T00:12:22;12.3;;;3.2;;
58306;SDS011;44116;50.884;4.768;2023-12-20T00:14:22;10.4;;;2.8;;
58306;SDS011;44116;50.884;4.768;2023-12-20T00:16:21;12.9;;;3.4;;
58306;SDS011;44116;50.884;4.768;2023-12-20T00:18:21;12.4;;;2.9;;
58306;SDS011;44116;50.884;4.768;2023-12-20T00:20:21;14.6;;;2.8;;
58306;SDS011;44116;50.884;4.768;2023-12-20T00:22:20;13.3;;;3.2;;
58306;SDS011;44116;50.884;4.768;2023-12-20T00:24:20;18.0;;;3.3;;
58306;SDS011;44116;50.884;4.768;2023-12-20T00:26:20;15.7;;;2.8;;
58306;SDS011;44116;50.884;4.768;2023-12-20T00:28:19;15.2;;;2.9;;
58306;SDS011;44116;50.884;4.768;2023-12-20T00:30:19;12.2;;;3.2;;
58306;SDS011;44116;50.884;4.768;2023-12-20T00:32:18;11.6;;;2.7;;
58306;SDS011;44116;50.884;4.768;2023-12-20T00:34:18;11.6;;;2.9;;
58306;SDS011;44116;50.884;4.768;2023-12-20T00:36:18;15.1;;;4.0;;
58306;SDS011;44116;50.884;4.768;2023-12-20T00:38:17;12.8;;;3.4;;
58306;SDS011;44116;50.884;4.768;2023-12-20T00:40:17;11.7;;;2.6;;
58306;SDS011;44116;50.884;4.768;2023-12-20T00:42:17;14.6;;;2.9;;
58306;SDS011;44116;50.884;4.768;2023-12-20T00:46:16;12.2;;;2.8;;
58306;SDS011;44116;50.884;4.768;2023-12-20T00:48:16;9.8;;;2.5;;
58306;SDS011;44116;50.884;4.768;2023-12-20T00:50:15;13.2;;;2.6;;
58306;SDS011;44116;50.884;4.768;2023-12-20T00:52:15;17.4;;;3.2;;
58306;SDS011;44116;50.884;4.768;2023-12-20T00:54:14;16.7;;;3.1;;
58306;SDS011;44116;50.884;4.768;2023-12-20T00:56:14;14.3;;;3.2;;
58306;SDS011;44116;50.884;4.768;2023-12-20T00:58:14;14.3;;;2.7;;
58306;SDS011;44116;50.884;4.768;2023-12-20T01:00:14;12.5;;;2.8;;
58306;SDS011;44116;50.884;4.768;2023-12-20T01:04:13;16.4;;;4.1;;
58306;SDS011;44116;50.884;4.768;2023-12-20T01:06:12;12.6;;;2.7;;
58306;SDS011;44116;50.884;4.768;2023-12-20T01:08:12;14.4;;;2.8;;
58306;SDS011;44116;50.884;4.768;2023-12-20T01:10:11;10.4;;;2.5;;
58306;SDS011;44116;50.884;4.768;2023-12-20T01:12:11;14.8;;;3.0;;
58306;SDS011;44116;50.884;4.768;2023-12-20T01:14:11;10.3;;;2.5;;
58306;SDS011;44116;50.884;4.768;2023-12-20T01:16:11;14.2;;;2.8;;
58306;SDS011;44116;50.884;4.768;2023-12-20T01:18:10;12.9;;;2.9;;
58306;SDS011;44116;50.884;4.768;2023-12-20T01:20:10;14.3;;;3.0;;
58306;SDS011;44116;50.884;4.768;2023-12-20T01:22:09;13.7;;;3.3;;
58306;SDS011;44116;50.884;4.768;2023-12-20T01:24:09;10.9;;;2.8;;
58306;SDS011;44116;50.884;4.768;2023-12-20T01:26:10;15.9;;;3.1;;
58306;SDS011;44116;50.884;4.768;2023-12-20T01:28:08;17.4;;;3.5;;
58306;SDS011;44116;50.884;4.768;2023-12-20T01:30:08;13.1;;;2.8;;
58306;SDS011;44116;50.884;4.768;2023-12-20T01:34:07;11.4;;;2.7;;
58306;SDS011;44116;50.884;4.768;2023-12-20T01:38:08;12.4;;;2.6;;
58306;SDS011;44116;50.884;4.768;2023-12-20T01:40:06;13.0;;;2.9;;
58306;SDS011;44116;50.884;4.768;2023-12-20T01:42:05;17.1;;;3.8;;
58306;SDS011;44116;50.884;4.768;2023-12-20T01:44:05;12.3;;;3.2;;
58306;SDS011;44116;50.884;4.768;2023-12-20T01:46:05;14.1;;;3.0;;
58306;SDS011;44116;50.884;4.768;2023-12-20T01:50:05;14.9;;;3.2;;
58306;SDS011;44116;50.884;4.768;2023-12-20T01:52:04;15.2;;;3.0;;
58306;SDS011;44116;50.884;4.768;2023-12-20T01:56:04;16.3;;;3.7;;
58306;SDS011;44116;50.884;4.768;2023-12-20T01:58:03;16.8;;;3.6;;
58306;SDS011;44116;50.884;4.768;2023-12-20T02:00:03;18.8;;;3.3;;
58306;SDS011;44116;50.884;4.768;2023-12-20T02:02:03;12.9;;;3.6;;
58306;SDS011;44116;50.884;4.768;2023-12-20T02:04:01;16.3;;;3.7;;
58306;SDS011;44116;50.884;4.768;2023-12-20T02:06:01;20.8;;;3.5;;
58306;SDS011;44116;50.884;4.768;2023-12-20T02:08:01;12.7;;;3.6;;
58306;SDS011;44116;50.884;4.768;2023-12-20T02:10:00;12.5;;;3.1;;
58306;SDS011;44116;50.884;4.768;2023-12-20T02:12:00;16.7;;;3.6;;
58306;SDS011;44116;50.884;4.768;2023-12-20T02:13:59;14.1;;;3.7;;
58306;SDS011;44116;50.884;4.768;2023-12-20T02:16:00;13.9;;;3.6;;
58306;SDS011;44116;50.884;4.768;2023-12-20T02:17:59;16.7;;;3.8;;
58306;SDS011;44116;50.884;4.768;2023-12-20T02:19:58;16.1;;;3.3;;
58306;SDS011;44116;50.884;4.768;2023-12-20T02:22:06;12.7;;;3.8;;
58306;SDS011;44116;50.884;4.768;2023-12-20T02:23:58;15.9;;;4.4;;
58306;SDS011;44116;50.884;4.768;2023-12-20T02:25:57;15.9;;;3.6;;
58306;SDS011;44116;50.884;4.768;2023-12-20T02:27:57;16.5;;;3.5;;
58306;SDS011;44116;50.884;4.768;2023-12-20T02:31:56;16.6;;;4.1;;
58306;SDS011;44116;50.884;4.768;2023-12-20T02:35:55;16.4;;;3.5;;
58306;SDS011;44116;50.884;4.768;2023-12-20T02:37:55;16.1;;;3.4;;
58306;SDS011;44116;50.884;4.768;2023-12-20T02:39:55;17.9;;;3.9;;
58306;SDS011;44116;50.884;4.768;2023-12-20T02:43:54;15.7;;;3.7;;
58306;SDS011;44116;50.884;4.768;2023-12-20T02:45:53;16.1;;;3.9;;
58306;SDS011;44116;50.884;4.768;2023-12-20T02:47:53;13.7;;;3.8;;
58306;SDS011;44116;50.884;4.768;2023-12-20T02:49:53;21.5;;;4.0;;
58306;SDS011;44116;50.884;4.768;2023-12-20T02:51:52;17.1;;;3.6;;
58306;SDS011;44116;50.884;4.768;2023-12-20T02:55:51;14.1;;;3.3;;
58306;SDS011;44116;50.884;4.768;2023-12-20T02:57:51;14.0;;;3.8;;
58306;SDS011;44116;50.884;4.768;2023-12-20T02:59:51;19.5;;;4.0;;
58306;SDS011;44116;50.884;4.768;2023-12-20T03:01:50;15.1;;;3.5;;
58306;SDS011;44116;50.884;4.768;2023-12-20T03:03:50;13.8;;;3.6;;
58306;SDS011;44116;50.884;4.768;2023-12-20T03:05:50;14.9;;;3.9;;
58306;SDS011;44116;50.884;4.768;2023-12-20T03:07:49;18.0;;;3.5;;
58306;SDS011;44116;50.884;4.768;2023-12-20T03:11:49;11.6;;;3.4;;
58306;SDS011;44116;50.884;4.768;2023-12-20T03:13:48;13.9;;;3.5;;
58306;SDS011;44116;50.884;4.768;2023-12-20T03:17:47;17.2;;;3.8;;
58306;SDS011;44116;50.884;4.768;2023-12-20T03:19:47;18.1;;;4.2;;
58306;SDS011;44116;50.884;4.768;2023-12-20T03:21:47;16.6;;;4.3;;
58306;SDS011;44116;50.884;4.768;2023-12-20T03:23:46;16.5;;;3.3;;
58306;SDS011;44116;50.884;4.768;2023-12-20T03:25:46;22.0;;;4.8;;
58306;SDS011;44116;50.884;4.768;2023-12-20T03:27:45;14.3;;;3.6;;
58306;SDS011;44116;50.884;4.768;2023-12-20T03:29:45;17.5;;;4.0;;
58306;SDS011;44116;50.884;4.768;2023-12-20T03:31:45;13.2;;;3.7;;
58306;SDS011;44116;50.884;4.768;2023-12-20T03:33:44;16.6;;;3.8;;
58306;SDS011;44116;50.884;4.768;2023-12-20T03:35:44;16.8;;;4.1;;
58306;SDS011;44116;50.884;4.768;2023-12-20T03:37:44;15.6;;;3.6;;
58306;SDS011;44116;50.884;4.768;2023-12-20T03:39:43;16.6;;;4.1;;
58306;SDS011;44116;50.884;4.768;2023-12-20T03:41:43;16.0;;;3.9;;
58306;SDS011;44116;50.884;4.768;2023-12-20T03:43:42;15.2;;;4.3;;
58306;SDS011;44116;50.884;4.768;2023-12-20T03:45:42;15.8;;;4.5;;
58306;SDS011;44116;50.884;4.768;2023-12-20T03:47:42;13.4;;;4.4;;
58306;SDS011;44116;50.884;4.768;2023-12-20T03:51:41;19.1;;;4.8;;
58306;SDS011;44116;50.884;4.768;2023-12-20T03:53:40;20.6;;;5.1;;
58306;SDS011;44116;50.884;4.768;2023-12-20T03:55:40;14.1;;;4.1;;
58306;SDS011;44116;50.884;4.768;2023-12-20T03:57:40;16.6;;;4.8;;
58306;SDS011;44116;50.884;4.768;2023-12-20T03:59:39;13.8;;;4.5;;
58306;SDS011;44116;50.884;4.768;2023-12-20T04:01:43;16.4;;;4.3;;
58306;SDS011;44116;50.884;4.768;2023-12-20T04:03:39;16.4;;;4.4;;
58306;SDS011;44116;50.884;4.768;2023-12-20T04:05:38;19.3;;;4.8;;
58306;SDS011;44116;50.884;4.768;2023-12-20T04:07:38;16.9;;;4.7;;
58306;SDS011;44116;50.884;4.768;2023-12-20T04:09:37;18.1;;;4.5;;
58306;SDS011;44116;50.884;4.768;2023-12-20T04:11:37;15.5;;;4.9;;
58306;SDS011;44116;50.884;4.768;2023-12-20T04:15:36;18.0;;;5.2;;
58306;SDS011;44116;50.884;4.768;2023-12-20T04:17:36;14.6;;;4.7;;
58306;SDS011;44116;50.884;4.768;2023-12-20T04:19:35;19.5;;;5.3;;
58306;SDS011;44116;50.884;4.768;2023-12-20T04:21:35;16.5;;;4.6;;
58306;SDS011;44116;50.884;4.768;2023-12-20T04:23:35;15.5;;;4.8;;
58306;SDS011;44116;50.884;4.768;2023-12-20T04:25:34;14.7;;;4.4;;
58306;SDS011;44116;50.884;4.768;2023-12-20T04:27:34;18.3;;;4.6;;
58306;SDS011;44116;50.884;4.768;2023-12-20T04:29:34;18.9;;;5.1;;
58306;SDS011;44116;50.884;4.768;2023-12-20T04:31:33;20.0;;;4.9;;
58306;SDS011;44116;50.884;4.768;2023-12-20T04:33:33;16.8;;;5.3;;
58306;SDS011;44116;50.884;4.768;2023-12-20T04:35:32;17.9;;;4.1;;
58306;SDS011;44116;50.884;4.768;2023-12-20T04:37:32;18.0;;;4.9;;
58306;SDS011;44116;50.884;4.768;2023-12-20T04:39:32;19.1;;;4.8;;
58306;SDS011;44116;50.884;4.768;2023-12-20T04:41:31;19.4;;;4.6;;
58306;SDS011;44116;50.884;4.768;2023-12-20T04:43:31;15.5;;;4.9;;
58306;SDS011;44116;50.884;4.768;2023-12-20T04:45:31;15.7;;;4.7;;
58306;SDS011;44116;50.884;4.768;2023-12-20T04:47:30;28.6;;;5.9;;
58306;SDS011;44116;50.884;4.768;2023-12-20T04:49:30;17.2;;;4.4;;
58306;SDS011;44116;50.884;4.768;2023-12-20T04:53:29;19.8;;;5.0;;
58306;SDS011;44116;50.884;4.768;2023-12-20T04:55:29;15.0;;;4.2;;
58306;SDS011;44116;50.884;4.768;2023-12-20T04:57:28;15.9;;;4.6;;
58306;SDS011;44116;50.884;4.768;2023-12-20T05:01:28;20.5;;;4.8;;
58306;SDS011;44116;50.884;4.768;2023-12-20T05:03:27;15.4;;;4.3;;
58306;SDS011;44116;50.884;4.768;2023-12-20T05:05:27;18.8;;;4.7;;
58306;SDS011;44116;50.884;4.768;2023-12-20T05:07:26;12.5;;;4.1;;
58306;SDS011;44116;50.884;4.768;2023-12-20T05:09:26;11.6;;;4.0;;
58306;SDS011;44116;50.884;4.768;2023-12-20T05:11:25;14.0;;;4.5;;
58306;SDS011;44116;50.884;4.768;2023-12-20T05:13:25;17.2;;;4.9;;
58306;SDS011;44116;50.884;4.768;2023-12-20T05:15:25;16.1;;;4.2;;
58306;SDS011;44116;50.884;4.768;2023-12-20T05:17:24;15.7;;;4.4;;
58306;SDS011;44116;50.884;4.768;2023-12-20T05:19:24;18.3;;;4.6;;
58306;SDS011;44116;50.884;4.768;2023-12-20T05:23:23;17.0;;;5.2;;
58306;SDS011;44116;50.884;4.768;2023-12-20T05:25:23;19.0;;;4.3;;
58306;SDS011;44116;50.884;4.768;2023-12-20T05:27:22;16.6;;;4.2;;
58306;SDS011;44116;50.884;4.768;2023-12-20T05:31:22;18.3;;;4.9;;
58306;SDS011;44116;50.884;4.768;2023-12-20T05:35:21;17.3;;;4.6;;
58306;SDS011;44116;50.884;4.768;2023-12-20T05:37:21;22.1;;;5.4;;
58306;SDS011;44116;50.884;4.768;2023-12-20T05:39:20;19.4;;;4.5;;
58306;SDS011;44116;50.884;4.768;2023-12-20T05:41:20;19.3;;;4.3;;
58306;SDS011;44116;50.884;4.768;2023-12-20T05:43:19;15.1;;;4.1;;
58306;SDS011;44116;50.884;4.768;2023-12-20T05:45:19;18.1;;;4.2;;
58306;SDS011;44116;50.884;4.768;2023-12-20T05:47:19;18.9;;;4.3;;
58306;SDS011;44116;50.884;4.768;2023-12-20T05:49:18;17.3;;;4.1;;
58306;SDS011;44116;50.884;4.768;2023-12-20T05:51:18;14.5;;;4.6;;
58306;SDS011;44116;50.884;4.768;2023-12-20T05:53:17;19.1;;;4.5;;
58306;SDS011;44116;50.884;4.768;2023-12-20T05:55:17;16.2;;;4.3;;
58306;SDS011;44116;50.884;4.768;2023-12-20T05:57:16;18.1;;;4.4;;
58306;SDS011;44116;50.884;4.768;2023-12-20T05:59:16;14.9;;;3.9;;
58306;SDS011;44116;50.884;4.768;2023-12-20T06:01:16;13.2;;;3.7;;
58306;SDS011;44116;50.884;4.768;2023-12-20T06:03:15;19.2;;;4.7;;
58306;SDS011;44116;50.884;4.768;2023-12-20T06:05:15;18.1;;;4.4;;
58306;SDS011;44116;50.884;4.768;2023-12-20T06:07:16;17.9;;;4.8;;
58306;SDS011;44116;50.884;4.768;2023-12-20T06:09:14;15.2;;;4.2;;
58306;SDS011;44116;50.884;4.768;2023-12-20T06:11:14;20.3;;;4.6;;
58306;SDS011;44116;50.884;4.768;2023-12-20T06:13:13;17.6;;;4.2;;
58306;SDS011;44116;50.884;4.768;2023-12-20T06:15:13;15.0;;;4.5;;
58306;SDS011;44116;50.884;4.768;2023-12-20T06:17:12;16.8;;;4.2;;
58306;SDS011;44116;50.884;4.768;2023-12-20T06:19:12;17.1;;;4.3;;
58306;SDS011;44116;50.884;4.768;2023-12-20T06:21:12;13.4;;;4.4;;
58306;SDS011;44116;50.884;4.768;2023-12-20T06:23:11;16.4;;;4.5;;
58306;SDS011;44116;50.884;4.768;2023-12-20T06:25:11;18.7;;;4.7;;
58306;SDS011;44116;50.884;4.768;2023-12-20T06:27:10;19.6;;;5.2;;
58306;SDS011;44116;50.884;4.768;2023-12-20T06:29:10;16.4;;;5.0;;
58306;SDS011;44116;50.884;4.768;2023-12-20T06:31:10;21.4;;;5.4;;
58306;SDS011;44116;50.884;4.768;2023-12-20T06:33:09;14.0;;;4.4;;
58306;SDS011;44116;50.884;4.768;2023-12-20T06:35:09;18.7;;;4.7;;
58306;SDS011;44116;50.884;4.768;2023-12-20T06:37:09;19.7;;;4.6;;
58306;SDS011;44116;50.884;4.768;2023-12-20T06:39:08;22.7;;;5.2;;
58306;SDS011;44116;50.884;4.768;2023-12-20T06:41:08;23.6;;;4.9;;
58306;SDS011;44116;50.884;4.768;2023-12-20T06:43:07;15.9;;;4.6;;
58306;SDS011;44116;50.884;4.768;2023-12-20T06:45:07;15.6;;;4.4;;
58306;SDS011;44116;50.884;4.768;2023-12-20T06:49:06;18.5;;;4.6;;
58306;SDS011;44116;50.884;4.768;2023-12-20T06:51:06;13.3;;;4.1;;
58306;SDS011;44116;50.884;4.768;2023-12-20T06:53:06;17.3;;;3.6;;
58306;SDS011;44116;50.884;4.768;2023-12-20T06:55:05;15.0;;;3.8;;
58306;SDS011;44116;50.884;4.768;2023-12-20T06:57:05;14.1;;;3.9;;
58306;SDS011;44116;50.884;4.768;2023-12-20T06:59:04;17.5;;;4.0;;
58306;SDS011;44116;50.884;4.768;2023-12-20T07:03:04;17.7;;;4.4;;
58306;SDS011;44116;50.884;4.768;2023-12-20T07:05:03;16.9;;;4.2;;
58306;SDS011;44116;50.884;4.768;2023-12-20T07:07:04;17.4;;;4.4;;
58306;SDS011;44116;50.884;4.768;2023-12-20T07:09:02;15.7;;;3.9;;
58306;SDS011;44116;50.884;4.768;2023-12-20T07:13:02;13.5;;;3.7;;
58306;SDS011;44116;50.884;4.768;2023-12-20T07:15:01;19.2;;;4.6;;
58306;SDS011;44116;50.884;4.768;2023-12-20T07:17:01;18.3;;;3.9;;
58306;SDS011;44116;50.884;4.768;2023-12-20T07:19:00;16.1;;;3.8;;
58306;SDS011;44116;50.884;4.768;2023-12-20T07:22:59;17.3;;;4.0;;
58306;SDS011;44116;50.884;4.768;2023-12-20T07:24:59;15.4;;;3.5;;
58306;SDS011;44116;50.884;4.768;2023-12-20T07:26:59;13.6;;;3.4;;
58306;SDS011;44116;50.884;4.768;2023-12-20T07:28:58;19.1;;;3.8;;
58306;SDS011;44116;50.884;4.768;2023-12-20T07:32:57;18.4;;;4.2;;
58306;SDS011;44116;50.884;4.768;2023-12-20T07:34:57;13.8;;;3.5;;
58306;SDS011;44116;50.884;4.768;2023-12-20T07:36:57;17.6;;;3.6;;
58306;SDS011;44116;50.884;4.768;2023-12-20T07:38:56;15.4;;;3.5;;
58306;SDS011;44116;50.884;4.768;2023-12-20T07:40:57;14.0;;;3.6;;
58306;SDS011;44116;50.884;4.768;2023-12-20T07:44:55;13.6;;;3.2;;
58306;SDS011;44116;50.884;4.768;2023-12-20T07:46:55;16.8;;;3.7;;
58306;SDS011;44116;50.884;4.768;2023-12-20T07:48:54;19.0;;;3.9;;
58306;SDS011;44116;50.884;4.768;2023-12-20T07:50:54;13.4;;;3.5;;
58306;SDS011;44116;50.884;4.768;2023-12-20T07:52:53;15.7;;;3.6;;
58306;SDS011;44116;50.884;4.768;2023-12-20T07:54:53;11.9;;;3.2;;
58306;SDS011;44116;50.884;4.768;2023-12-20T07:56:53;17.5;;;3.7;;
58306;SDS011;44116;50.884;4.768;2023-12-20T07:58:52;15.6;;;4.0;;
58306;SDS011;44116;50.884;4.768;2023-12-20T08:00:52;14.0;;;3.8;;
58306;SDS011;44116;50.884;4.768;2023-12-20T08:02:52;14.4;;;4.0;;
58306;SDS011;44116;50.884;4.768;2023-12-20T08:04:51;14.7;;;3.7;;
58306;SDS011;44116;50.884;4.768;2023-12-20T08:06:51;15.4;;;3.6;;
58306;SDS011;44116;50.884;4.768;2023-12-20T08:08:50;15.6;;;3.7;;
58306;SDS011;44116;50.884;4.768;2023-12-20T08:10:51;17.4;;;4.0;;
58306;SDS011;44116;50.884;4.768;2023-12-20T08:12:50;14.6;;;3.3;;
58306;SDS011;44116;50.884;4.768;2023-12-20T08:14:49;20.6;;;3.7;;
58306;SDS011;44116;50.884;4.768;2023-12-20T08:16:49;13.9;;;3.5;;
58306;SDS011;44116;50.884;4.768;2023-12-20T08:18:49;14.9;;;3.3;;
58306;SDS011;44116;50.884;4.768;2023-12-20T08:20:48;21.8;;;3.7;;
58306;SDS011;44116;50.884;4.768;2023-12-20T08:22:47;13.2;;;3.4;;
58306;SDS011;44116;50.884;4.768;2023-12-20T08:24:47;17.2;;;3.1;;
58306;SDS011;44116;50.884;4.768;2023-12-20T08:26:47;14.9;;;3.3;;
58306;SDS011;44116;50.884;4.768;2023-12-20T08:28:46;15.2;;;3.1;;
58306;SDS011;44116;50.884;4.768;2023-12-20T08:30:46;15.6;;;3.2;;
58306;SDS011;44116;50.884;4.768;2023-12-20T08:32:46;21.7;;;3.5;;
58306;SDS011;44116;50.884;4.768;2023-12-20T08:34:45;13.8;;;3.0;;
58306;SDS011;44116;50.884;4.768;2023-12-20T08:36:45;13.4;;;3.2;;
58306;SDS011;44116;50.884;4.768;2023-12-20T08:38:44;16.4;;;3.9;;
58306;SDS011;44116;50.884;4.768;2023-12-20T08:40:44;15.2;;;3.4;;
58306;SDS011;44116;50.884;4.768;2023-12-20T08:42:44;15.6;;;3.8;;
58306;SDS011;44116;50.884;4.768;2023-12-20T08:44:43;22.0;;;3.9;;
58306;SDS011;44116;50.884;4.768;2023-12-20T08:46:43;15.2;;;2.7;;
58306;SDS011;44116;50.884;4.768;2023-12-20T08:48:42;13.8;;;3.3;;
58306;SDS011;44116;50.884;4.768;2023-12-20T08:50:43;17.4;;;3.9;;
58306;SDS011;44116;50.884;4.768;2023-12-20T08:52:42;19.4;;;3.7;;
58306;SDS011;44116;50.884;4.768;2023-12-20T08:54:41;14.2;;;3.3;;
58306;SDS011;44116;50.884;4.768;2023-12-20T08:56:41;21.2;;;3.5;;
58306;SDS011;44116;50.884;4.768;2023-12-20T08:58:41;15.7;;;3.0;;
58306;SDS011;44116;50.884;4.768;2023-12-20T09:00:40;17.0;;;3.8;;
58306;SDS011;44116;50.884;4.768;2023-12-20T09:02:40;13.6;;;3.2;;
58306;SDS011;44116;50.884;4.768;2023-12-20T09:04:39;14.4;;;3.4;;
58306;SDS011;44116;50.884;4.768;2023-12-20T09:06:39;12.7;;;3.2;;
58306;SDS011;44116;50.884;4.768;2023-12-20T09:08:39;16.3;;;3.6;;
58306;SDS011;44116;50.884;4.768;2023-12-20T09:10:38;10.8;;;3.0;;
58306;SDS011;44116;50.884;4.768;2023-12-20T09:12:39;19.7;;;3.4;;
58306;SDS011;44116;50.884;4.768;2023-12-20T09:14:37;15.6;;;3.8;;
58306;SDS011;44116;50.884;4.768;2023-12-20T09:16:37;15.6;;;3.4;;
58306;SDS011;44116;50.884;4.768;2023-12-20T09:18:37;17.3;;;3.7;;
58306;SDS011;44116;50.884;4.768;2023-12-20T09:20:36;12.4;;;3.8;;
58306;SDS011;44116;50.884;4.768;2023-12-20T09:22:36;12.7;;;3.3;;
58306;SDS011;44116;50.884;4.768;2023-12-20T09:24:36;15.6;;;3.0;;
58306;SDS011;44116;50.884;4.768;2023-12-20T09:26:35;12.2;;;3.5;;
58306;SDS011;44116;50.884;4.768;2023-12-20T09:28:35;16.1;;;3.2;;
58306;SDS011;44116;50.884;4.768;2023-12-20T09:30:34;14.0;;;3.3;;
58306;SDS011;44116;50.884;4.768;2023-12-20T09:32:34;14.0;;;3.0;;
58306;SDS011;44116;50.884;4.768;2023-12-20T09:34:34;16.4;;;3.6;;
58306;SDS011;44116;50.884;4.768;2023-12-20T09:36:33;17.2;;;3.4;;
58306;SDS011;44116;50.884;4.768;2023-12-20T09:38:33;16.6;;;3.3;;
58306;SDS011;44116;50.884;4.768;2023-12-20T09:40:32;15.6;;;4.0;;
58306;SDS011;44116;50.884;4.768;2023-12-20T09:42:38;13.7;;;3.2;;
58306;SDS011;44116;50.884;4.768;2023-12-20T09:44:33;12.7;;;3.0;;
58306;SDS011;44116;50.884;4.768;2023-12-20T09:46:32;17.0;;;3.7;;
58306;SDS011;44116;50.884;4.768;2023-12-20T09:48:32;16.8;;;3.4;;
58306;SDS011;44116;50.884;4.768;2023-12-20T09:50:31;18.7;;;3.5;;
58306;SDS011;44116;50.884;4.768;2023-12-20T09:52:31;15.8;;;3.3;;
58306;SDS011;44116;50.884;4.768;2023-12-20T09:54:30;17.7;;;3.6;;
58306;SDS011;44116;50.884;4.768;2023-12-20T09:56:30;15.8;;;3.1;;
58306;SDS011;44116;50.884;4.768;2023-12-20T09:58:29;17.5;;;3.5;;
58306;SDS011;44116;50.884;4.768;2023-12-20T10:00:29;16.1;;;3.2;;
58306;SDS011;44116;50.884;4.768;2023-12-20T10:02:30;15.6;;;3.5;;
58306;SDS011;44116;50.884;4.768;2023-12-20T10:04:31;11.9;;;3.1;;
58306;SDS011;44116;50.884;4.768;2023-12-20T10:06:28;16.3;;;3.5;;
58306;SDS011;44116;50.884;4.768;2023-12-20T10:08:27;17.9;;;3.7;;
58306;SDS011;44116;50.884;4.768;2023-12-20T10:10:27;13.2;;;3.6;;
58306;SDS011;44116;50.884;4.768;2023-12-20T10:12:27;13.5;;;2.9;;
58306;SDS011;44116;50.884;4.768;2023-12-20T10:14:26;18.3;;;3.6;;
58306;SDS011;44116;50.884;4.768;2023-12-20T10:16:26;15.5;;;4.2;;
58306;SDS011;44116;50.884;4.768;2023-12-20T10:18:26;17.7;;;3.4;;
58306;SDS011;44116;50.884;4.768;2023-12-20T10:20:25;16.3;;;3.7;;
58306;SDS011;44116;50.884;4.768;2023-12-20T10:22:26;12.4;;;3.1;;
58306;SDS011;44116;50.884;4.768;2023-12-20T10:24:24;12.9;;;3.4;;
58306;SDS011;44116;50.884;4.768;2023-12-20T10:26:25;13.6;;;3.9;;
58306;SDS011;44116;50.884;4.768;2023-12-20T10:28:24;17.1;;;3.6;;
58306;SDS011;44116;50.884;4.768;2023-12-20T10:30:23;13.3;;;3.7;;
58306;SDS011;44116;50.884;4.768;2023-12-20T10:32:24;12.3;;;3.1;;
58306;SDS011;44116;50.884;4.768;2023-12-20T10:34:23;12.4;;;3.7;;
58306;SDS011;44116;50.884;4.768;2023-12-20T10:36:23;11.9;;;3.8;;
58306;SDS011;44116;50.884;4.768;2023-12-20T10:38:22;15.8;;;4.0;;
58306;SDS011;44116;50.884;4.768;2023-12-20T10:40:22;14.2;;;4.1;;
58306;SDS011;44116;50.884;4.768;2023-12-20T10:42:22;13.7;;;4.0;;
58306;SDS011;44116;50.884;4.768;2023-12-20T10:44:21;16.1;;;3.9;;
58306;SDS011;44116;50.884;4.768;2023-12-20T10:46:21;16.7;;;4.3;;
58306;SDS011;44116;50.884;4.768;2023-12-20T10:48:21;16.1;;;3.6;;
58306;SDS011;44116;50.884;4.768;2023-12-20T10:50:20;16.9;;;4.1;;
58306;SDS011;44116;50.884;4.768;2023-12-20T10:52:22;17.2;;;4.3;;
58306;SDS011;44116;50.884;4.768;2023-12-20T10:54:19;16.5;;;3.8;;
58306;SDS011;44116;50.884;4.768;2023-12-20T10:56:20;14.8;;;3.7;;
58306;SDS011;44116;50.884;4.768;2023-12-20T10:58:20;16.0;;;4.0;;
58306;SDS011;44116;50.884;4.768;2023-12-20T11:00:19;17.9;;;3.5;;
58306;SDS011;44116;50.884;4.768;2023-12-20T11:02:18;14.7;;;3.8;;
58306;SDS011;44116;50.884;4.768;2023-12-20T11:04:21;12.7;;;3.3;;
58306;SDS011;44116;50.884;4.768;2023-12-20T11:06:27;14.5;;;3.8;;
58306;SDS011;44116;50.884;4.768;2023-12-20T11:08:21;15.6;;;3.3;;
58306;SDS011;44116;50.884;4.768;2023-12-20T11:10:20;17.0;;;3.4;;
58306;SDS011;44116;50.884;4.768;2023-12-20T11:12:20;14.9;;;4.0;;
58306;SDS011;44116;50.884;4.768;2023-12-20T11:14:20;16.8;;;3.4;;
58306;SDS011;44116;50.884;4.768;2023-12-20T11:16:15;14.2;;;3.7;;
58306;SDS011;44116;50.884;4.768;2023-12-20T11:18:15;16.8;;;3.6;;
58306;SDS011;44116;50.884;4.768;2023-12-20T11:20:15;18.3;;;3.7;;
58306;SDS011;44116;50.884;4.768;2023-12-20T11:22:14;17.2;;;4.1;;
58306;SDS011;44116;50.884;4.768;2023-12-20T11:24:15;15.8;;;3.7;;
58306;SDS011;44116;50.884;4.768;2023-12-20T11:26:16;18.0;;;4.1;;
58306;SDS011;44116;50.884;4.768;2023-12-20T11:28:14;12.9;;;3.5;;
58306;SDS011;44116;50.884;4.768;2023-12-20T11:30:14;18.2;;;3.8;;
58306;SDS011;44116;50.884;4.768;2023-12-20T11:32:30;15.4;;;3.4;;
58306;SDS011;44116;50.884;4.768;2023-12-20T11:36:13;17.5;;;3.7;;
58306;SDS011;44116;50.884;4.768;2023-12-20T11:38:13;17.1;;;4.3;;
58306;SDS011;44116;50.884;4.768;2023-12-20T11:40:13;16.7;;;3.6;;
58306;SDS011;44116;50.884;4.768;2023-12-20T11:44:11;13.3;;;3.4;;
58306;SDS011;44116;50.884;4.768;2023-12-20T11:46:10;16.2;;;4.1;;
58306;SDS011;44116;50.884;4.768;2023-12-20T11:50:10;13.9;;;4.0;;
58306;SDS011;44116;50.884;4.768;2023-12-20T11:52:12;16.4;;;3.3;;
58306;SDS011;44116;50.884;4.768;2023-12-20T11:54:09;14.1;;;3.6;;
58306;SDS011;44116;50.884;4.768;2023-12-20T11:56:09;16.8;;;3.8;;
58306;SDS011;44116;50.884;4.768;2023-12-20T11:58:08;17.0;;;4.0;;
58306;SDS011;44116;50.884;4.768;2023-12-20T12:00:09;15.2;;;3.7;;
58306;SDS011;44116;50.884;4.768;2023-12-20T12:04:07;11.2;;;3.0;;
58306;SDS011;44116;50.884;4.768;2023-12-20T12:06:07;12.2;;;3.6;;
58306;SDS011;44116;50.884;4.768;2023-12-20T12:08:07;16.2;;;4.3;;
58306;SDS011;44116;50.884;4.768;2023-12-20T12:10:07;12.6;;;3.5;;
58306;SDS011;44116;50.884;4.768;2023-12-20T12:12:07;15.6;;;3.4;;
58306;SDS011;44116;50.884;4.768;2023-12-20T12:14:06;13.0;;;3.2;;
58306;SDS011;44116;50.884;4.768;2023-12-20T12:16:06;19.7;;;4.5;;
58306;SDS011;44116;50.884;4.768;2023-12-20T12:18:06;21.8;;;4.0;;
58306;SDS011;44116;50.884;4.768;2023-12-20T12:20:06;16.7;;;3.9;;
58306;SDS011;44116;50.884;4.768;2023-12-20T12:22:05;18.9;;;3.8;;
58306;SDS011;44116;50.884;4.768;2023-12-20T12:24:07;24.0;;;4.2;;
58306;SDS011;44116;50.884;4.768;2023-12-20T12:26:04;15.5;;;3.9;;
58306;SDS011;44116;50.884;4.768;2023-12-20T12:30:05;14.9;;;3.1;;
58306;SDS011;44116;50.884;4.768;2023-12-20T12:32:06;12.1;;;3.3;;
58306;SDS011;44116;50.884;4.768;2023-12-20T12:34:03;19.2;;;3.8;;
58306;SDS011;44116;50.884;4.768;2023-12-20T12:36:03;16.4;;;3.2;;
58306;SDS011;44116;50.884;4.768;2023-12-20T12:38:02;12.7;;;3.5;;
58306;SDS011;44116;50.884;4.768;2023-12-20T12:42:02;17.3;;;3.6;;
58306;SDS011;44116;50.884;4.768;2023-12-20T12:46:01;12.7;;;3.3;;
58306;SDS011;44116;50.884;4.768;2023-12-20T12:48:00;15.5;;;3.4;;
58306;SDS011;44116;50.884;4.768;2023-12-20T12:50:00;13.6;;;3.7;;
58306;SDS011;44116;50.884;4.768;2023-12-20T12:52:00;16.1;;;4.4;;
58306;SDS011;44116;50.884;4.768;2023-12-20T12:54:00;16.1;;;3.6;;
58306;SDS011;44116;50.884;4.768;2023-12-20T12:57:59;16.0;;;3.8;;
58306;SDS011;44116;50.884;4.768;2023-12-20T12:59:59;11.7;;;3.6;;
58306;SDS011;44116;50.884;4.768;2023-12-20T13:01:58;17.5;;;3.7;;
58306;SDS011;44116;50.884;4.768;2023-12-20T13:05:58;17.4;;;3.8;;
58306;SDS011;44116;50.884;4.768;2023-12-20T13:07:57;16.7;;;3.9;;
58306;SDS011;44116;50.884;4.768;2023-12-20T13:11:57;14.7;;;3.6;;
58306;SDS011;44116;50.884;4.768;2023-12-20T13:13:56;11.5;;;3.3;;
58306;SDS011;44116;50.884;4.768;2023-12-20T13:17:56;14.8;;;3.8;;
58306;SDS011;44116;50.884;4.768;2023-12-20T13:19:55;14.7;;;4.0;;
58306;SDS011;44116;50.884;4.768;2023-12-20T13:21:55;15.0;;;3.4;;